M I D A S
Marine Information and Data Acquisition System
Tripno 2060 of the Zeeleeuw from 2011-03-17 07:15:59 to 2011-03-17 18:06:09
Back to CruiseResearch ActivitiesStationsMapUnderway DataData graphs

EquipmentUnitsComment
TimeDGPSUTC
LatitudeDGPSDM.mWGS84
LongitudeDGPSDM.mWGS84
HeadingGyrodeg 
SOGDGPSknotsSpeed over ground
COGDGPSdegCourse over ground
DepthEcho soundermeters200 kHz
Missing or incorrect values are displayed as -999
Navigation data collected by the RV Zeeleeuw from 2011-03-17 07:05:48 to 2011-03-17 18:13:10
                                                                                    Next 1000 lines
Time Latitude Longitude Heading SOG COG Depth
2011-03-17 07:05:58 51°13.662 2°55.96 127 -999 113 -999
2011-03-17 07:06:03 51°13.662 2°55.96 127.1 0.1 41 7.8
2011-03-17 07:06:08 51°13.662 2°55.961 127.1 -999 35 7.8
2011-03-17 07:06:13 51°13.662 2°55.961 127.2 -999 48 7.8
2011-03-17 07:06:18 51°13.661 2°55.961 127.2 -999 147 -999
2011-03-17 07:06:23 51°13.662 2°55.961 127.3 -999 56 -999
2011-03-17 07:06:28 51°13.662 2°55.961 127.5 -999 79 -999
2011-03-17 07:06:33 51°13.662 2°55.961 127.5 -999 13 -999
2011-03-17 07:06:38 51°13.662 2°55.961 127.6 -999 20 -999
2011-03-17 07:06:42 51°13.662 2°55.961 127.6 -999 254 -999
2011-03-17 07:06:48 51°13.662 2°55.96 127.6 -999 268 -999
2011-03-17 07:06:53 51°13.662 2°55.96 127.6 -999 15 7.8
2011-03-17 07:06:58 51°13.662 2°55.96 127.6 -999 287 8
2011-03-17 07:07:03 51°13.662 2°55.96 127.6 -999 331 -999
2011-03-17 07:07:08 51°13.662 2°55.96 127.5 -999 350 -999
2011-03-17 07:07:13 51°13.662 2°55.96 127.4 -999 323 -999
2011-03-17 07:07:18 51°13.662 2°55.96 127.3 -999 3 7.8
2011-03-17 07:07:23 51°13.662 2°55.96 127.2 -999 10 -999
2011-03-17 07:07:28 51°13.662 2°55.96 127.1 -999 333 -999
2011-03-17 07:07:33 51°13.662 2°55.96 127 -999 359 -999
2011-03-17 07:07:38 51°13.662 2°55.96 126.9 -999 36 -999
2011-03-17 07:07:43 51°13.662 2°55.96 126.9 0.1 28 -999
2011-03-17 07:07:48 51°13.662 2°55.96 126.9 -999 89 -999
2011-03-17 07:07:53 51°13.662 2°55.96 126.9 -999 179 -999
2011-03-17 07:07:58 51°13.662 2°55.96 126.9 -999 162 -999
2011-03-17 07:08:03 51°13.662 2°55.96 127.1 -999 145 -999
2011-03-17 07:08:07 51°13.662 2°55.96 127.2 -999 39 -999
2011-03-17 07:08:13 51°13.662 2°55.96 127.3 -999 24 -999
2011-03-17 07:08:18 51°13.662 2°55.96 127.6 -999 7 -999
2011-03-17 07:08:23 51°13.662 2°55.96 127.7 0.1 1 -999
2011-03-17 07:08:28 51°13.662 2°55.96 127.7 0.1 339 -999
2011-03-17 07:08:34 51°13.663 2°55.959 127.7 0.1 331 -999
2011-03-17 07:08:38 51°13.663 2°55.959 127.3 0.1 342 -999
2011-03-17 07:08:43 51°13.663 2°55.959 126.8 0.1 338 -999
2011-03-17 07:08:48 51°13.663 2°55.959 126.1 0.1 348 -999
2011-03-17 07:08:53 51°13.663 2°55.959 125.5 0.1 356 -999
2011-03-17 07:08:58 51°13.663 2°55.959 124.9 -999 296 7.9
2011-03-17 07:09:03 51°13.663 2°55.959 124.7 -999 121 -999
2011-03-17 07:09:08 51°13.663 2°55.959 124.6 0.1 114 7.9
2011-03-17 07:09:13 51°13.662 2°55.959 125 0.1 172 -999
2011-03-17 07:09:18 51°13.662 2°55.959 125.6 0.1 169 -999
2011-03-17 07:09:24 51°13.662 2°55.96 126.4 0.1 159 -999
2011-03-17 07:09:28 51°13.662 2°55.96 126.7 0.1 143 -999
2011-03-17 07:09:32 51°13.662 2°55.96 127.1 0.1 175 -999
2011-03-17 07:09:38 51°13.662 2°55.96 127.4 -999 33 -999
2011-03-17 07:09:43 51°13.662 2°55.96 127.8 -999 7 7.8
2011-03-17 07:09:48 51°13.662 2°55.96 128.1 0.1 354 -999
2011-03-17 07:09:53 51°13.662 2°55.96 128.1 0.1 351 -999
2011-03-17 07:09:58 51°13.662 2°55.96 127.8 0.1 347 -999
2011-03-17 07:10:03 51°13.662 2°55.959 127.5 -999 319 -999
2011-03-17 07:10:08 51°13.662 2°55.959 127.1 -999 341 -999
2011-03-17 07:10:13 51°13.662 2°55.959 126.5 -999 230 -999
2011-03-17 07:10:18 51°13.662 2°55.959 126.3 -999 146 -999
2011-03-17 07:10:23 51°13.662 2°55.959 126 0.1 168 -999
2011-03-17 07:10:28 51°13.662 2°55.959 125.9 0.1 211 -999
2011-03-17 07:10:33 51°13.662 2°55.959 126.2 -999 170 -999
2011-03-17 07:10:38 51°13.662 2°55.959 126.9 0.1 163 -999
2011-03-17 07:10:43 51°13.662 2°55.96 127.2 -999 68 -999
2011-03-17 07:10:48 51°13.662 2°55.96 127.3 -999 312 -999
2011-03-17 07:10:52 51°13.662 2°55.96 127.7 0.1 1 -999
2011-03-17 07:10:57 51°13.662 2°55.959 127.8 0.1 348 7.8
2011-03-17 07:11:02 51°13.662 2°55.96 127.8 0.1 3 7.8
2011-03-17 07:11:08 51°13.662 2°55.959 127.3 0.1 321 -999
2011-03-17 07:11:14 51°13.662 2°55.959 126.8 0.1 333 -999
2011-03-17 07:11:18 51°13.662 2°55.959 126.4 0.1 335 -999
2011-03-17 07:11:24 51°13.662 2°55.959 125.9 -999 10 -999
2011-03-17 07:11:28 51°13.662 2°55.959 125.5 -999 195 -999
2011-03-17 07:11:33 51°13.662 2°55.96 125.1 -999 122 -999
2011-03-17 07:11:37 51°13.662 2°55.959 125 0.1 187 -999
2011-03-17 07:11:43 51°13.662 2°55.96 125 -999 138 -999
2011-03-17 07:11:48 51°13.662 2°55.96 125.7 0.1 145 -999
2011-03-17 07:11:53 51°13.662 2°55.96 126.1 0.1 72 -999
2011-03-17 07:11:58 51°13.662 2°55.96 126.3 -999 158 -999
2011-03-17 07:12:04 51°13.662 2°55.96 126.4 -999 96 -999
2011-03-17 07:12:08 51°13.662 2°55.96 126.7 -999 241 -999
2011-03-17 07:12:14 51°13.662 2°55.96 127.1 -999 356 -999
2011-03-17 07:12:17 51°13.662 2°55.96 127.2 -999 239 -999
2011-03-17 07:12:22 51°13.662 2°55.96 127.2 -999 10 -999
2011-03-17 07:12:28 51°13.662 2°55.96 127.1 -999 239 -999
2011-03-17 07:12:34 51°13.662 2°55.96 126.8 -999 342 -999
2011-03-17 07:12:38 51°13.662 2°55.96 126.6 -999 247 8.2
2011-03-17 07:12:43 51°13.662 2°55.96 126.5 -999 28 -999
2011-03-17 07:12:48 51°13.662 2°55.96 126.4 -999 174 -999
2011-03-17 07:12:54 51°13.662 2°55.96 126.3 -999 72 -999
2011-03-17 07:12:58 51°13.662 2°55.96 126.3 -999 179 -999
2011-03-17 07:13:03 51°13.662 2°55.96 126.4 -999 97 -999
2011-03-17 07:13:08 51°13.662 2°55.96 126.5 -999 118 -999
2011-03-17 07:13:14 51°13.662 2°55.96 127 -999 99 -999
2011-03-17 07:13:18 51°13.662 2°55.96 127.3 -999 79 -999
2011-03-17 07:13:23 51°13.662 2°55.96 127.6 -999 38 -999
2011-03-17 07:13:28 51°13.662 2°55.96 127.8 -999 41 8
2011-03-17 07:13:33 51°13.662 2°55.96 128 -999 18 -999
2011-03-17 07:13:38 51°13.662 2°55.96 128 -999 317 -999
2011-03-17 07:13:43 51°13.662 2°55.96 128 -999 265 7.9
2011-03-17 07:13:48 51°13.662 2°55.96 128 -999 297 -999
2011-03-17 07:13:54 51°13.662 2°55.96 128 0.1 10 -999
2011-03-17 07:13:58 51°13.662 2°55.96 127.9 -999 21 -999
2011-03-17 07:14:04 51°13.662 2°55.96 127.8 -999 325 -999
2011-03-17 07:14:08 51°13.662 2°55.96 127.8 -999 335 7.9
2011-03-17 07:14:14 51°13.662 2°55.96 127.7 0.1 349 8.1
2011-03-17 07:14:18 51°13.662 2°55.96 127.6 0.1 349 -999
2011-03-17 07:14:24 51°13.662 2°55.96 127.2 -999 348 -999
2011-03-17 07:14:29 51°13.662 2°55.96 126.9 -999 349 -999
2011-03-17 07:14:33 51°13.662 2°55.96 126.6 0.1 -999 -999
2011-03-17 07:14:38 51°13.662 2°55.96 126.4 0.1 349 -999
2011-03-17 07:14:43 51°13.662 2°55.96 126.2 -999 2 -999
2011-03-17 07:14:48 51°13.662 2°55.96 126 -999 13 -999
2011-03-17 07:14:54 51°13.662 2°55.96 125.9 -999 8 -999
2011-03-17 07:14:58 51°13.662 2°55.96 125.9 -999 17 -999
2011-03-17 07:15:03 51°13.662 2°55.96 125.8 -999 333 -999
2011-03-17 07:15:08 51°13.662 2°55.96 125.7 -999 254 -999
2011-03-17 07:15:14 51°13.662 2°55.96 125.6 -999 352 -999
2011-03-17 07:15:18 51°13.662 2°55.96 125.5 -999 22 -999
2011-03-17 07:15:23 51°13.662 2°55.96 125.3 -999 7 -999
2011-03-17 07:15:28 51°13.662 2°55.96 125.2 -999 15 -999
2011-03-17 07:15:34 51°13.662 2°55.96 125.1 -999 260 -999
2011-03-17 07:15:38 51°13.662 2°55.959 125.1 -999 267 -999
2011-03-17 07:15:43 51°13.662 2°55.96 125.1 -999 347 -999
2011-03-17 07:15:48 51°13.662 2°55.96 125.1 -999 15 -999
2011-03-17 07:15:53 51°13.662 2°55.96 125 -999 1 8
2011-03-17 07:15:58 51°13.662 2°55.96 124.9 -999 353 -999
2011-03-17 07:16:03 51°13.662 2°55.96 124.9 -999 297 -999
2011-03-17 07:16:08 51°13.662 2°55.96 124.8 -999 33 -999
2011-03-17 07:16:13 51°13.662 2°55.96 124.8 -999 224 -999
2011-03-17 07:16:18 51°13.662 2°55.96 124.8 -999 28 -999
2011-03-17 07:16:23 51°13.662 2°55.96 124.8 -999 198 -999
2011-03-17 07:16:29 51°13.662 2°55.96 124.8 -999 13 -999
2011-03-17 07:16:34 51°13.662 2°55.96 124.9 -999 226 8
2011-03-17 07:16:38 51°13.662 2°55.96 124.9 -999 205 -999
2011-03-17 07:16:44 51°13.662 2°55.96 125 -999 227 -999
2011-03-17 07:16:48 51°13.662 2°55.96 125.1 -999 24 -999
2011-03-17 07:16:54 51°13.662 2°55.96 125.1 -999 233 -999
2011-03-17 07:16:58 51°13.662 2°55.96 125.1 -999 18 -999
2011-03-17 07:17:03 51°13.662 2°55.96 125.1 -999 78 -999
2011-03-17 07:17:09 51°13.662 2°55.96 125.1 -999 145 -999
2011-03-17 07:17:14 51°13.662 2°55.96 125.2 -999 225 -999
2011-03-17 07:17:18 51°13.662 2°55.96 125.2 -999 66 -999
2011-03-17 07:17:23 51°13.662 2°55.96 125.3 -999 43 -999
2011-03-17 07:17:28 51°13.662 2°55.96 125.5 -999 57 -999
2011-03-17 07:17:34 51°13.662 2°55.96 125.7 -999 160 -999
2011-03-17 07:17:38 51°13.662 2°55.96 125.8 -999 109 -999
2011-03-17 07:17:43 51°13.662 2°55.96 126 -999 104 -999
2011-03-17 07:17:48 51°13.662 2°55.96 126.3 -999 161 -999
2011-03-17 07:17:54 51°13.662 2°55.96 126.4 -999 113 7.9
2011-03-17 07:17:58 51°13.662 2°55.96 126.5 -999 82 -999
2011-03-17 07:18:03 51°13.662 2°55.96 126.6 -999 248 8
2011-03-17 07:18:08 51°13.662 2°55.96 126.8 -999 44 8
2011-03-17 07:18:13 51°13.662 2°55.96 126.9 -999 38 -999
2011-03-17 07:18:18 51°13.662 2°55.96 127 -999 74 -999
2011-03-17 07:18:24 51°13.662 2°55.96 127.1 0.1 68 -999
2011-03-17 07:18:28 51°13.662 2°55.96 127.3 0.1 59 7.9
2011-03-17 07:18:33 51°13.662 2°55.96 127.7 0.1 58 -999
2011-03-17 07:18:38 51°13.662 2°55.96 128 0.1 52 -999
2011-03-17 07:18:43 51°13.662 2°55.96 128.4 0.1 30 7.9
2011-03-17 07:18:48 51°13.662 2°55.96 128.5 0.1 14 -999
2011-03-17 07:18:54 51°13.662 2°55.96 128.4 0.1 3 -999
2011-03-17 07:18:58 51°13.662 2°55.96 127.6 0.1 313 -999
2011-03-17 07:19:03 51°13.662 2°55.959 126.7 0.2 275 7.9
2011-03-17 07:19:08 51°13.663 2°55.959 126.2 0.2 291 8
2011-03-17 07:19:14 51°13.663 2°55.959 125.8 0.1 292 -999
2011-03-17 07:19:18 51°13.663 2°55.959 125.4 -999 297 -999
2011-03-17 07:19:23 51°13.663 2°55.959 124.8 -999 54 -999
2011-03-17 07:19:28 51°13.663 2°55.959 124.2 0.1 166 -999
2011-03-17 07:19:34 51°13.662 2°55.959 124.2 0.1 127 -999
2011-03-17 07:19:38 51°13.662 2°55.959 124.6 0.1 136 -999
2011-03-17 07:19:43 51°13.662 2°55.959 125.1 0.1 146 -999
2011-03-17 07:19:48 51°13.662 2°55.959 125.7 0.1 148 -999
2011-03-17 07:19:54 51°13.662 2°55.959 126.3 -999 147 8.2
2011-03-17 07:19:58 51°13.662 2°55.959 126.5 -999 65 -999
2011-03-17 07:20:03 51°13.662 2°55.959 126.7 -999 349 -999
2011-03-17 07:20:08 51°13.662 2°55.959 126.8 -999 307 8
2011-03-17 07:20:13 51°13.662 2°55.959 126.8 0.1 294 -999
2011-03-17 07:20:18 51°13.662 2°55.959 126.6 -999 294 8
2011-03-17 07:20:23 51°13.662 2°55.959 126.4 0.1 343 -999
2011-03-17 07:20:28 51°13.662 2°55.959 126.1 -999 341 8
2011-03-17 07:20:33 51°13.662 2°55.959 125.8 -999 17 -999
2011-03-17 07:20:38 51°13.662 2°55.959 125.7 -999 170 -999
2011-03-17 07:20:43 51°13.662 2°55.959 125.6 -999 85 -999
2011-03-17 07:20:48 51°13.662 2°55.959 125.6 -999 174 8.1
2011-03-17 07:20:53 51°13.662 2°55.959 125.6 -999 179 -999
2011-03-17 07:20:58 51°13.662 2°55.959 125.7 -999 172 -999
2011-03-17 07:21:04 51°13.662 2°55.959 126 -999 173 -999
2011-03-17 07:21:08 51°13.662 2°55.959 126.2 -999 127 -999
2011-03-17 07:21:14 51°13.662 2°55.959 126.4 -999 144 -999
2011-03-17 07:21:18 51°13.662 2°55.959 126.4 -999 94 8.1
2011-03-17 07:21:23 51°13.662 2°55.959 126.6 -999 134 8
2011-03-17 07:21:28 51°13.662 2°55.959 126.6 -999 80 8
2011-03-17 07:21:33 51°13.662 2°55.959 126.7 -999 179 8
2011-03-17 07:21:38 51°13.662 2°55.959 126.8 -999 191 8.2
2011-03-17 07:21:43 51°13.662 2°55.959 127 -999 90 -999
2011-03-17 07:21:48 51°13.662 2°55.959 127.1 -999 177 -999
2011-03-17 07:21:54 51°13.662 2°55.959 127.1 -999 162 8.1
2011-03-17 07:21:58 51°13.662 2°55.959 127.3 -999 157 8
2011-03-17 07:22:03 51°13.662 2°55.959 127.4 -999 150 8
2011-03-17 07:22:07 51°13.662 2°55.959 127.6 -999 30 8.2
2011-03-17 07:22:13 51°13.662 2°55.959 127.8 -999 358 -999
2011-03-17 07:22:18 51°13.662 2°55.959 127.8 -999 322 8.2
2011-03-17 07:22:22 51°13.662 2°55.959 127.8 -999 258 8.2
2011-03-17 07:22:27 51°13.662 2°55.959 127.8 -999 309 -999
2011-03-17 07:22:33 51°13.662 2°55.959 127.8 -999 289 -999
2011-03-17 07:22:38 51°13.662 2°55.959 127.7 -999 307 -999
2011-03-17 07:22:43 51°13.662 2°55.959 127.6 -999 330 8.2
2011-03-17 07:22:48 51°13.662 2°55.959 127.5 -999 281 8.1
2011-03-17 07:22:53 51°13.662 2°55.959 127.3 -999 345 8.2
2011-03-17 07:22:58 51°13.662 2°55.959 127.2 -999 345 -999
2011-03-17 07:23:03 51°13.662 2°55.959 127.1 -999 337 8.1
2011-03-17 07:23:08 51°13.662 2°55.959 126.9 -999 311 8
2011-03-17 07:23:13 51°13.662 2°55.959 126.8 -999 132 8.2
2011-03-17 07:23:18 51°13.662 2°55.959 126.8 -999 352 -999
2011-03-17 07:23:23 51°13.662 2°55.959 126.8 -999 60 8
2011-03-17 07:23:28 51°13.662 2°55.959 126.8 -999 103 8
2011-03-17 07:23:34 51°13.662 2°55.959 126.8 -999 109 -999
2011-03-17 07:23:38 51°13.662 2°55.959 126.9 -999 101 -999
2011-03-17 07:23:43 51°13.662 2°55.959 127.1 -999 101 -999
2011-03-17 07:23:48 51°13.662 2°55.959 127.3 -999 90 -999
2011-03-17 07:23:54 51°13.662 2°55.959 127.6 -999 77 -999
2011-03-17 07:23:58 51°13.662 2°55.96 127.8 -999 62 -999
2011-03-17 07:24:03 51°13.662 2°55.96 127.9 -999 40 8
2011-03-17 07:24:08 51°13.662 2°55.96 127.9 -999 21 8
2011-03-17 07:24:14 51°13.662 2°55.96 127.9 0.1 10 -999
2011-03-17 07:24:18 51°13.662 2°55.96 127.7 0.1 11 8
2011-03-17 07:24:23 51°13.662 2°55.96 127.3 -999 339 -999
2011-03-17 07:24:28 51°13.662 2°55.96 127 -999 327 8.1
2011-03-17 07:24:34 51°13.662 2°55.96 126.6 -999 246 -999
2011-03-17 07:24:38 51°13.662 2°55.96 126.5 -999 347 -999
2011-03-17 07:24:43 51°13.662 2°55.96 126.4 -999 260 8.1
2011-03-17 07:24:48 51°13.662 2°55.96 126.4 -999 296 -999
2011-03-17 07:24:53 51°13.662 2°55.96 126.2 -999 298 8.1
2011-03-17 07:24:58 51°13.662 2°55.96 126.1 -999 287 -999
2011-03-17 07:25:04 51°13.662 2°55.959 126 -999 305 -999
2011-03-17 07:25:08 51°13.662 2°55.959 125.9 -999 257 -999
2011-03-17 07:25:14 51°13.662 2°55.959 125.9 -999 300 -999
2011-03-17 07:25:18 51°13.663 2°55.959 125.8 -999 261 -999
2011-03-17 07:25:23 51°13.663 2°55.959 125.7 -999 254 -999
2011-03-17 07:25:29 51°13.663 2°55.959 125.7 0.1 229 -999
2011-03-17 07:25:34 51°13.663 2°55.959 125.7 -999 217 -999
2011-03-17 07:25:38 51°13.663 2°55.959 125.7 -999 197 -999
2011-03-17 07:25:44 51°13.663 2°55.959 125.7 -999 208 -999
2011-03-17 07:25:49 51°13.663 2°55.959 125.7 -999 175 -999
2011-03-17 07:25:54 51°13.663 2°55.959 125.7 -999 154 -999
2011-03-17 07:25:58 51°13.663 2°55.959 125.8 -999 179 -999
2011-03-17 07:26:03 51°13.663 2°55.959 126.1 -999 80 -999
2011-03-17 07:26:08 51°13.663 2°55.959 126.2 -999 140 8.2
2011-03-17 07:26:14 51°13.662 2°55.959 126.4 -999 141 -999
2011-03-17 07:26:18 51°13.662 2°55.959 126.5 -999 188 -999
2011-03-17 07:26:23 51°13.662 2°55.959 126.6 -999 109 -999
2011-03-17 07:26:28 51°13.662 2°55.959 126.7 -999 17 8.1
2011-03-17 07:26:33 51°13.662 2°55.959 126.8 -999 340 8.1
2011-03-17 07:26:38 51°13.662 2°55.959 126.8 -999 282 8.1
2011-03-17 07:26:42 51°13.662 2°55.959 126.8 -999 301 -999
2011-03-17 07:26:48 51°13.662 2°55.959 126.8 -999 2 -999
2011-03-17 07:26:53 51°13.662 2°55.959 126.8 -999 1 -999
2011-03-17 07:26:58 51°13.662 2°55.959 126.7 -999 3 -999
2011-03-17 07:27:03 51°13.662 2°55.959 126.5 -999 333 -999
2011-03-17 07:27:08 51°13.662 2°55.959 126.4 -999 320 -999
2011-03-17 07:27:13 51°13.662 2°55.959 126.4 -999 280 8.2
2011-03-17 07:27:18 51°13.662 2°55.96 126.4 -999 15 8.2
2011-03-17 07:27:24 51°13.662 2°55.959 126.3 -999 283 -999
2011-03-17 07:27:28 51°13.662 2°55.96 126.3 -999 34 -999
2011-03-17 07:27:33 51°13.662 2°55.96 126.2 -999 320 -999
2011-03-17 07:27:38 51°13.662 2°55.96 126.1 -999 338 -999
2011-03-17 07:27:44 51°13.662 2°55.96 126.1 -999 342 -999
2011-03-17 07:27:49 51°13.662 2°55.96 126 -999 20 -999
2011-03-17 07:27:54 51°13.662 2°55.96 125.9 -999 343 -999
2011-03-17 07:27:58 51°13.662 2°55.96 125.8 -999 8 -999
2011-03-17 07:28:03 51°13.662 2°55.96 125.7 -999 336 -999
2011-03-17 07:28:08 51°13.663 2°55.96 125.6 -999 9 -999
2011-03-17 07:28:14 51°13.663 2°55.96 125.5 -999 340 -999
2011-03-17 07:28:18 51°13.663 2°55.96 125.4 -999 347 -999
2011-03-17 07:28:23 51°13.663 2°55.96 125.3 -999 322 -999
2011-03-17 07:28:28 51°13.663 2°55.96 125.1 -999 291 -999
2011-03-17 07:28:34 51°13.663 2°55.96 125 -999 23 -999
2011-03-17 07:28:38 51°13.663 2°55.96 125 -999 273 -999
2011-03-17 07:28:43 51°13.663 2°55.96 125 -999 74 -999
2011-03-17 07:28:48 51°13.663 2°55.96 125.2 -999 110 -999
2011-03-17 07:28:53 51°13.663 2°55.96 125.3 -999 46 -999
2011-03-17 07:28:58 51°13.663 2°55.96 125.5 -999 81 -999
2011-03-17 07:29:03 51°13.663 2°55.96 125.7 -999 38 -999
2011-03-17 07:29:08 51°13.663 2°55.96 126 -999 118 -999
2011-03-17 07:29:13 51°13.663 2°55.96 126.3 -999 87 -999
2011-03-17 07:29:18 51°13.663 2°55.96 126.5 -999 108 -999
2011-03-17 07:29:23 51°13.663 2°55.96 126.7 -999 91 -999
2011-03-17 07:29:28 51°13.663 2°55.96 127 0.1 121 -999
2011-03-17 07:29:34 51°13.663 2°55.96 127.2 -999 152 -999
2011-03-17 07:29:38 51°13.663 2°55.96 127.4 -999 157 -999
2011-03-17 07:29:44 51°13.663 2°55.96 127.6 0.1 173 -999
2011-03-17 07:29:48 51°13.662 2°55.96 127.7 0.1 166 -999
2011-03-17 07:29:54 51°13.662 2°55.96 127.8 0.1 156 -999
2011-03-17 07:29:58 51°13.662 2°55.96 127.9 0.1 169 8.1
2011-03-17 07:30:03 51°13.662 2°55.96 128 -999 116 8.1
2011-03-17 07:30:08 51°13.662 2°55.96 128 -999 280 8.1
2011-03-17 07:30:14 51°13.662 2°55.96 128.1 -999 321 -999
2011-03-17 07:30:18 51°13.662 2°55.96 128.1 -999 311 8.1
2011-03-17 07:30:23 51°13.662 2°55.96 128.1 0.1 11 -999
2011-03-17 07:30:29 51°13.662 2°55.96 127.9 -999 343 -999
2011-03-17 07:30:34 51°13.662 2°55.96 127.7 -999 348 -999
2011-03-17 07:30:38 51°13.662 2°55.96 127.4 -999 310 -999
2011-03-17 07:30:43 51°13.662 2°55.96 127.3 -999 260 -999
2011-03-17 07:30:49 51°13.662 2°55.96 127.2 -999 212 -999
2011-03-17 07:30:54 51°13.662 2°55.96 127.2 0.1 196 -999
2011-03-17 07:30:58 51°13.662 2°55.96 127.1 -999 185 -999
2011-03-17 07:31:03 51°13.662 2°55.96 127.1 -999 211 8.1
2011-03-17 07:31:08 51°13.662 2°55.96 127.1 -999 48 -999
2011-03-17 07:31:13 51°13.662 2°55.96 127.1 -999 252 8.2
2011-03-17 07:31:18 51°13.662 2°55.96 127.1 -999 26 -999
2011-03-17 07:31:23 51°13.662 2°55.96 127.2 -999 286 -999
2011-03-17 07:31:28 51°13.662 2°55.96 127.1 -999 5 8.1
2011-03-17 07:31:33 51°13.662 2°55.96 127.1 -999 351 -999
2011-03-17 07:31:38 51°13.662 2°55.96 127.1 -999 3 -999
2011-03-17 07:31:44 51°13.662 2°55.96 127 -999 234 -999
2011-03-17 07:31:48 51°13.662 2°55.96 126.9 -999 24 -999
2011-03-17 07:31:53 51°13.662 2°55.96 126.9 -999 306 8.1
2011-03-17 07:31:58 51°13.662 2°55.96 126.8 -999 334 8.1
2011-03-17 07:32:03 51°13.662 2°55.96 126.8 -999 287 -999
2011-03-17 07:32:08 51°13.662 2°55.96 126.7 -999 352 -999
2011-03-17 07:32:14 51°13.662 2°55.96 126.6 -999 349 -999
2011-03-17 07:32:18 51°13.662 2°55.96 126.4 -999 319 -999
2011-03-17 07:32:24 51°13.663 2°55.96 126.3 -999 329 -999
2011-03-17 07:32:28 51°13.662 2°55.96 126.2 -999 232 -999
2011-03-17 07:32:34 51°13.663 2°55.96 126.1 -999 313 -999
2011-03-17 07:32:38 51°13.663 2°55.96 126.1 -999 213 -999
2011-03-17 07:32:43 51°13.663 2°55.96 126.1 -999 123 -999
2011-03-17 07:32:48 51°13.663 2°55.96 126.1 -999 197 -999
2011-03-17 07:32:54 51°13.663 2°55.96 126.1 -999 151 -999
2011-03-17 07:32:58 51°13.663 2°55.96 126.1 -999 196 -999
2011-03-17 07:33:03 51°13.663 2°55.96 126.2 -999 11 -999
2011-03-17 07:33:08 51°13.663 2°55.96 126.3 -999 21 -999
2011-03-17 07:33:14 51°13.663 2°55.96 126.3 -999 281 -999
2011-03-17 07:33:18 51°13.663 2°55.96 126.3 -999 314 -999
2011-03-17 07:33:23 51°13.663 2°55.96 126.3 -999 1 -999
2011-03-17 07:33:28 51°13.663 2°55.96 126.3 -999 317 -999
2011-03-17 07:33:33 51°13.663 2°55.96 126.2 -999 326 -999
2011-03-17 07:33:38 51°13.663 2°55.96 126.1 -999 333 -999
2011-03-17 07:33:43 51°13.663 2°55.96 125.9 -999 345 -999
2011-03-17 07:33:48 51°13.663 2°55.96 125.8 -999 357 -999
2011-03-17 07:33:53 51°13.663 2°55.96 125.7 -999 351 -999
2011-03-17 07:33:58 51°13.663 2°55.959 125.5 -999 347 -999
2011-03-17 07:34:03 51°13.663 2°55.959 125.3 -999 27 -999
2011-03-17 07:34:08 51°13.663 2°55.959 125.2 -999 350 -999
2011-03-17 07:34:14 51°13.663 2°55.959 125.2 -999 14 -999
2011-03-17 07:34:18 51°13.663 2°55.959 125.2 -999 42 -999
2011-03-17 07:34:24 51°13.663 2°55.959 125.2 -999 18 -999
2011-03-17 07:34:28 51°13.663 2°55.959 125.1 -999 353 -999
2011-03-17 07:34:34 51°13.663 2°55.959 125.1 -999 18 -999
2011-03-17 07:34:38 51°13.663 2°55.959 125.1 -999 227 -999
2011-03-17 07:34:43 51°13.663 2°55.959 125.1 -999 44 -999
2011-03-17 07:34:48 51°13.663 2°55.959 125.3 -999 203 -999
2011-03-17 07:34:54 51°13.663 2°55.959 125.6 -999 95 -999
2011-03-17 07:34:58 51°13.663 2°55.96 125.7 0.1 127 8.5
2011-03-17 07:35:03 51°13.663 2°55.96 125.8 0.1 98 -999
2011-03-17 07:35:08 51°13.663 2°55.96 126.1 0.1 140 -999
2011-03-17 07:35:14 51°13.663 2°55.96 126.4 0.1 104 8.2
2011-03-17 07:35:18 51°13.663 2°55.96 126.7 0.1 154 8.2
2011-03-17 07:35:23 51°13.663 2°55.961 127.1 -999 87 8.1
2011-03-17 07:35:28 51°13.663 2°55.96 127.7 -999 329 -999
2011-03-17 07:35:34 51°13.663 2°55.96 128.4 0.1 2 8.2
2011-03-17 07:35:38 51°13.663 2°55.96 128.7 -999 284 8.2
2011-03-17 07:35:43 51°13.663 2°55.96 128.8 -999 55 8.1
2011-03-17 07:35:48 51°13.663 2°55.96 128.8 -999 190 -999
2011-03-17 07:35:53 51°13.663 2°55.961 128.8 -999 27 -999
2011-03-17 07:35:58 51°13.662 2°55.961 128.8 -999 221 -999
2011-03-17 07:36:04 51°13.663 2°55.961 128.8 -999 345 -999
2011-03-17 07:36:08 51°13.662 2°55.961 128.7 -999 231 8.2
2011-03-17 07:36:13 51°13.663 2°55.961 128.6 -999 287 -999
2011-03-17 07:36:18 51°13.663 2°55.96 128.6 -999 258 -999
2011-03-17 07:36:24 51°13.663 2°55.96 128.6 -999 251 -999
2011-03-17 07:36:28 51°13.663 2°55.961 128.6 -999 234 -999
2011-03-17 07:36:33 51°13.663 2°55.961 128.7 -999 28 8.2
2011-03-17 07:36:38 51°13.663 2°55.961 128.7 -999 347 8.2
2011-03-17 07:36:43 51°13.663 2°55.961 128.8 -999 16 -999
2011-03-17 07:36:48 51°13.662 2°55.961 128.8 -999 209 -999
2011-03-17 07:36:54 51°13.663 2°55.961 128.8 -999 29 -999
2011-03-17 07:36:58 51°13.663 2°55.961 128.9 -999 321 -999
2011-03-17 07:37:03 51°13.663 2°55.961 129 -999 43 -999
2011-03-17 07:37:08 51°13.663 2°55.961 129.2 -999 298 8.2
2011-03-17 07:37:13 51°13.663 2°55.96 129.2 -999 341 8.3
2011-03-17 07:37:18 51°13.663 2°55.96 129.3 -999 39 -999
2011-03-17 07:37:23 51°13.663 2°55.96 129.3 -999 226 8.2
2011-03-17 07:37:28 51°13.663 2°55.96 129.3 -999 131 8.2
2011-03-17 07:37:34 51°13.663 2°55.96 129.3 -999 115 -999
2011-03-17 07:37:38 51°13.663 2°55.96 129.2 -999 53 8.3
2011-03-17 07:37:43 51°13.662 2°55.96 129.2 -999 219 -999
2011-03-17 07:37:48 51°13.662 2°55.961 129.2 -999 241 -999
2011-03-17 07:37:54 51°13.662 2°55.961 129.2 -999 45 8.2
2011-03-17 07:37:58 51°13.662 2°55.961 129.1 -999 185 -999
2011-03-17 07:38:03 51°13.662 2°55.961 129.1 -999 26 -999
2011-03-17 07:38:08 51°13.662 2°55.961 129 -999 239 -999
2011-03-17 07:38:13 51°13.662 2°55.961 129 -999 64 -999
2011-03-17 07:38:18 51°13.663 2°55.961 129 -999 41 -999
2011-03-17 07:38:24 51°13.663 2°55.961 129 -999 340 -999
2011-03-17 07:38:28 51°13.663 2°55.961 129 -999 344 8.2
2011-03-17 07:38:34 51°13.663 2°55.96 129 -999 33 -999
2011-03-17 07:38:38 51°13.663 2°55.96 129 -999 356 8.2
2011-03-17 07:38:43 51°13.663 2°55.96 128.9 -999 75 -999
2011-03-17 07:38:48 51°13.663 2°55.961 128.9 -999 62 -999
2011-03-17 07:38:53 51°13.663 2°55.961 128.5 -999 72 -999
2011-03-17 07:38:58 51°13.663 2°55.961 127.9 -999 211 -999
2011-03-17 07:39:03 51°13.663 2°55.961 127 -999 191 -999
2011-03-17 07:39:08 51°13.663 2°55.961 126.3 -999 201 -999
2011-03-17 07:39:14 51°13.662 2°55.961 125.5 -999 196 -999
2011-03-17 07:39:18 51°13.662 2°55.961 124.4 0.1 199 -999
2011-03-17 07:39:23 51°13.662 2°55.96 123.6 -999 209 8.2
2011-03-17 07:39:28 51°13.662 2°55.96 122.5 0.1 212 -999
2011-03-17 07:39:34 51°13.662 2°55.96 121.5 0.1 204 8.4
2011-03-17 07:39:38 51°13.662 2°55.96 120.7 0.1 184 8.2
2011-03-17 07:39:42 51°13.662 2°55.96 119.9 -999 187 8.2
2011-03-17 07:39:47 51°13.662 2°55.96 119.2 0.1 215 8.2
2011-03-17 07:39:53 51°13.662 2°55.96 118.3 -999 193 8.2
2011-03-17 07:39:58 51°13.662 2°55.96 117.4 0.1 184 -999
2011-03-17 07:40:02 51°13.662 2°55.96 116.4 0.1 193 8.2
2011-03-17 07:40:07 51°13.662 2°55.96 115.5 0.1 202 8.2
2011-03-17 07:40:13 51°13.662 2°55.96 114.3 0.1 198 8.2
2011-03-17 07:40:18 51°13.661 2°55.96 113.5 0.1 241 8.2
2011-03-17 07:40:22 51°13.662 2°55.96 112.4 0.1 276 8.2
2011-03-17 07:40:27 51°13.662 2°55.959 111.3 0.4 291 8.2
2011-03-17 07:40:32 51°13.662 2°55.957 110.6 0.7 295 8.4
2011-03-17 07:40:37 51°13.662 2°55.955 110 1 292 8.5
2011-03-17 07:40:42 51°13.663 2°55.953 109.6 1.2 295 8.8
2011-03-17 07:40:46 51°13.664 2°55.951 109.2 1.4 292 8.8
2011-03-17 07:40:51 51°13.665 2°55.947 109 1.7 293 8.8
2011-03-17 07:40:56 51°13.666 2°55.943 108.6 1.9 292 -999
2011-03-17 07:41:02 51°13.667 2°55.938 108.2 2.2 291 -999
2011-03-17 07:41:07 51°13.668 2°55.933 107.6 2.4 289 -999
2011-03-17 07:41:13 51°13.669 2°55.926 107.1 2.7 289 -999
2011-03-17 07:41:18 51°13.67 2°55.92 106.4 2.9 287 -999
2011-03-17 07:41:23 51°13.672 2°55.913 105.6 3.1 285 -999
2011-03-17 07:41:28 51°13.673 2°55.906 104.6 3.3 284 -999
2011-03-17 07:41:34 51°13.674 2°55.897 103.8 3.5 283 -999
2011-03-17 07:41:38 51°13.675 2°55.891 103.6 3.7 282 -999
2011-03-17 07:41:43 51°13.676 2°55.882 103.4 3.8 282 -999
2011-03-17 07:41:49 51°13.677 2°55.873 103.7 3.8 282 -999
2011-03-17 07:41:54 51°13.678 2°55.865 104.2 3.7 282 -999
2011-03-17 07:41:58 51°13.679 2°55.858 104.6 3.7 282 -999
2011-03-17 07:42:03 51°13.68 2°55.85 105 3.7 282 -999
2011-03-17 07:42:08 51°13.681 2°55.842 105.7 3.7 284 -999
2011-03-17 07:42:14 51°13.683 2°55.833 106.7 3.7 283 -999
2011-03-17 07:42:18 51°13.684 2°55.827 107.5 3.7 284 -999
2011-03-17 07:42:23 51°13.685 2°55.819 108.7 3.6 285 -999
2011-03-17 07:42:28 51°13.686 2°55.811 110 3.6 286 -999
2011-03-17 07:42:33 51°13.688 2°55.804 111.4 3.5 287 -999
2011-03-17 07:42:38 51°13.689 2°55.796 113.1 3.5 287 -999
2011-03-17 07:42:43 51°13.691 2°55.789 114.2 3.4 289 -999
2011-03-17 07:42:48 51°13.692 2°55.782 116 3.4 290 -999
2011-03-17 07:42:53 51°13.694 2°55.775 117.8 3.3 292 -999
2011-03-17 07:42:58 51°13.696 2°55.769 119.8 3.3 294 -999
2011-03-17 07:43:03 51°13.698 2°55.762 122 3.3 297 -999
2011-03-17 07:43:09 51°13.701 2°55.755 124.2 3.3 298 -999
2011-03-17 07:43:13 51°13.703 2°55.75 126.8 3.3 301 -999
2011-03-17 07:43:18 51°13.705 2°55.744 129.4 3.3 304 -999
2011-03-17 07:43:24 51°13.709 2°55.736 131.6 3.4 306 -999
2011-03-17 07:43:28 51°13.711 2°55.732 133.7 3.5 309 -999
2011-03-17 07:43:34 51°13.715 2°55.725 136.4 3.6 311 -999
2011-03-17 07:43:38 51°13.718 2°55.72 138 3.7 313 13.1
2011-03-17 07:43:43 51°13.722 2°55.714 139.6 3.8 316 -999
2011-03-17 07:43:48 51°13.726 2°55.708 141.3 4 318 -999
2011-03-17 07:43:54 51°13.731 2°55.701 143.1 4.1 320 -999
2011-03-17 07:43:58 51°13.734 2°55.697 144.4 4.2 322 -999
2011-03-17 07:44:03 51°13.74 2°55.691 145.9 4.4 324 -999
2011-03-17 07:44:09 51°13.746 2°55.684 147.4 4.5 325 -999
2011-03-17 07:44:14 51°13.751 2°55.679 148.9 4.5 327 -999
2011-03-17 07:44:18 51°13.755 2°55.674 150.3 4.6 328 -999
2011-03-17 07:44:23 51°13.761 2°55.669 151.7 4.7 330 -999
2011-03-17 07:44:28 51°13.767 2°55.664 153.2 4.8 331 -999
2011-03-17 07:44:34 51°13.774 2°55.658 155.1 4.8 333 -999
2011-03-17 07:44:38 51°13.779 2°55.655 156.4 4.9 334 -999
2011-03-17 07:44:43 51°13.785 2°55.65 157.9 5 337 -999
2011-03-17 07:44:48 51°13.791 2°55.646 159.8 5 337 -999
2011-03-17 07:44:53 51°13.798 2°55.642 161.4 5.1 339 -999
2011-03-17 07:44:58 51°13.805 2°55.638 163 5.2 341 -999
2011-03-17 07:45:04 51°13.813 2°55.634 164.6 5.3 342 -999
2011-03-17 07:45:08 51°13.819 2°55.631 166.3 5.3 344 -999
2011-03-17 07:45:13 51°13.826 2°55.628 168.3 5.4 345 -999
2011-03-17 07:45:18 51°13.833 2°55.626 170.1 5.4 347 -999
2011-03-17 07:45:23 51°13.841 2°55.623 171.6 5.4 349 -999
2011-03-17 07:45:28 51°13.848 2°55.621 173.6 5.2 350 -999
2011-03-17 07:45:33 51°13.854 2°55.62 175.7 5 353 -999
2011-03-17 07:45:38 51°13.861 2°55.619 177.8 4.9 354 -999
2011-03-17 07:45:44 51°13.869 2°55.618 180 4.8 356 -999
2011-03-17 07:45:48 51°13.874 2°55.618 182.3 4.7 358 -999
2011-03-17 07:45:54 51°13.882 2°55.619 184.6 4.5 -999 -999
2011-03-17 07:45:58 51°13.886 2°55.619 187.3 4.4 3 -999
2011-03-17 07:46:03 51°13.892 2°55.619 189.9 4.2 5 -999
2011-03-17 07:46:08 51°13.898 2°55.62 192.4 4.1 8 -999
2011-03-17 07:46:14 51°13.904 2°55.623 195.3 4 10 -999
2011-03-17 07:46:18 51°13.908 2°55.624 197.3 3.9 13 12.1
2011-03-17 07:46:23 51°13.913 2°55.627 199.5 3.8 15 11.9
2011-03-17 07:46:28 51°13.918 2°55.629 201.9 3.6 18 11.9
2011-03-17 07:46:33 51°13.922 2°55.632 204.1 3.4 19 11.9
2011-03-17 07:46:38 51°13.927 2°55.634 205.9 3.3 21 11.9
2011-03-17 07:46:43 51°13.931 2°55.637 207.7 3.1 23 -999
2011-03-17 07:46:48 51°13.934 2°55.64 209.1 3 24 11.9
2011-03-17 07:46:53 51°13.938 2°55.643 210.3 2.9 25 11.9
2011-03-17 07:46:58 51°13.941 2°55.645 211.3 2.8 25 11.9
2011-03-17 07:47:02 51°13.944 2°55.647 212.2 2.6 25 11.9
2011-03-17 07:47:07 51°13.947 2°55.649 212.9 2.2 26 11.9
2011-03-17 07:47:12 51°13.949 2°55.651 214.4 1.7 23 11.9
2011-03-17 07:47:17 51°13.95 2°55.651 216.3 1.2 22 11.9
2011-03-17 07:47:22 51°13.951 2°55.651 218.9 0.8 12 11.9
2011-03-17 07:47:26 51°13.952 2°55.651 222.1 0.5 354 11.9
2011-03-17 07:47:31 51°13.952 2°55.65 225.8 0.4 301 12
2011-03-17 07:47:36 51°13.952 2°55.649 230.4 0.5 277 12
2011-03-17 07:47:41 51°13.952 2°55.646 235.4 1.3 261 11.9
2011-03-17 07:47:46 51°13.951 2°55.642 240.8 1.9 254 11.9
2011-03-17 07:47:50 51°13.951 2°55.638 248.3 2.4 262 12
2011-03-17 07:47:55 51°13.95 2°55.631 257 2.8 266 11.9
2011-03-17 07:48:00 51°13.951 2°55.624 265.7 3.3 276 11.9
2011-03-17 07:48:05 51°13.952 2°55.616 274.2 3.5 282 12
2011-03-17 07:48:10 51°13.953 2°55.608 282.4 3.7 288 12
2011-03-17 07:48:15 51°13.956 2°55.6 290.2 3.9 295 12.2
2011-03-17 07:48:20 51°13.959 2°55.593 297.9 4.1 302 12
2011-03-17 07:48:25 51°13.963 2°55.585 305.7 4.4 310 12
2011-03-17 07:48:30 51°13.968 2°55.578 313.6 4.7 316 11.8
2011-03-17 07:48:35 51°13.973 2°55.571 320 5 321 11.7
2011-03-17 07:48:40 51°13.979 2°55.563 322.5 5.4 321 11.7
2011-03-17 07:48:45 51°13.986 2°55.556 324.4 5.7 324 11.8
2011-03-17 07:48:50 51°13.993 2°55.548 325.2 6 324 11.9
2011-03-17 07:48:55 51°14 2°55.54 326 6.4 325 11.9
2011-03-17 07:49:00 51°14.008 2°55.531 326.6 6.6 325 11.9
2011-03-17 07:49:05 51°14.016 2°55.523 326.7 6.9 326 11.6
2011-03-17 07:49:10 51°14.024 2°55.514 326.7 7 326 11.7
2011-03-17 07:49:15 51°14.032 2°55.505 327.3 7.2 327 11.7
2011-03-17 07:49:20 51°14.041 2°55.496 328.4 7.5 327 11.7
2011-03-17 07:49:25 51°14.05 2°55.487 329.2 7.7 328 11.7
2011-03-17 07:49:30 51°14.059 2°55.478 329.4 7.8 327 11.6
2011-03-17 07:49:34 51°14.067 2°55.47 329.1 8 327 -999
2011-03-17 07:49:40 51°14.078 2°55.459 330 8.1 329 11.9
2011-03-17 07:49:45 51°14.088 2°55.45 331.2 8.2 329 11.7
2011-03-17 07:49:50 51°14.098 2°55.44 331.5 8.3 329 11.6
2011-03-17 07:49:55 51°14.108 2°55.431 331.9 8.4 330 11.6
2011-03-17 07:50:00 51°14.118 2°55.422 332.2 8.5 330 11.5
2011-03-17 07:50:05 51°14.129 2°55.413 332.8 8.6 331 11.6
2011-03-17 07:50:09 51°14.137 2°55.405 333 8.6 330 -999
2011-03-17 07:50:15 51°14.149 2°55.394 332.5 8.7 330 11.4
2011-03-17 07:50:19 51°14.158 2°55.386 331.7 8.7 329 -999
2011-03-17 07:50:25 51°14.17 2°55.374 331.3 8.7 329 -999
2011-03-17 07:50:30 51°14.181 2°55.364 331.1 8.8 329 11.4
2011-03-17 07:50:35 51°14.191 2°55.353 330.4 9 328 11.5
2011-03-17 07:50:41 51°14.204 2°55.34 330 9.2 328 -999
2011-03-17 07:50:46 51°14.215 2°55.329 330 9.3 328 -999
2011-03-17 07:50:52 51°14.228 2°55.315 329.7 9.6 328 -999
2011-03-17 07:50:57 51°14.24 2°55.304 329.9 9.7 328 -999
2011-03-17 07:51:03 51°14.254 2°55.29 330.8 9.9 329 -999
2011-03-17 07:51:08 51°14.265 2°55.279 331.1 9.9 328 -999
2011-03-17 07:51:13 51°14.277 2°55.267 330.6 10.1 328 -999
2011-03-17 07:51:17 51°14.287 2°55.258 330.6 10.3 329 11.2
2011-03-17 07:51:23 51°14.302 2°55.244 330.9 10.3 329 11.7
2011-03-17 07:51:27 51°14.312 2°55.234 331.1 10.5 328 11.6
2011-03-17 07:51:33 51°14.326 2°55.218 330.5 10.7 327 11.6
2011-03-17 07:51:37 51°14.337 2°55.208 329.7 10.8 327 11.1
2011-03-17 07:51:42 51°14.349 2°55.195 329.4 11 327 11.4
2011-03-17 07:51:47 51°14.362 2°55.181 328.9 11.1 327 11
2011-03-17 07:51:51 51°14.373 2°55.171 328.8 11.2 328 11.4
2011-03-17 07:51:57 51°14.389 2°55.154 329.3 11.4 327 11.2
2011-03-17 07:52:02 51°14.402 2°55.14 329.4 11.5 327 11.5
2011-03-17 07:52:06 51°14.413 2°55.129 329.2 11.5 326 11.7
2011-03-17 07:52:11 51°14.426 2°55.114 328.4 11.6 325 11.1
2011-03-17 07:52:16 51°14.439 2°55.1 327.4 11.7 325 11.9
2011-03-17 07:52:21 51°14.452 2°55.085 327.3 11.7 325 12.1
2011-03-17 07:52:26 51°14.465 2°55.069 326.7 11.7 323 -999
2011-03-17 07:52:31 51°14.478 2°55.053 325 11.7 323 -999
2011-03-17 07:52:37 51°14.494 2°55.035 325.1 11.8 324 -999
2011-03-17 07:52:42 51°14.507 2°55.02 325.6 11.8 324 12.5
2011-03-17 07:52:46 51°14.518 2°55.008 326.3 11.7 325 11.8
2011-03-17 07:52:51 51°14.531 2°54.993 327.3 11.8 325 12.4
2011-03-17 07:52:56 51°14.545 2°54.978 327.6 11.9 325 12.5
2011-03-17 07:53:01 51°14.558 2°54.963 327.6 11.9 325 12.8
2011-03-17 07:53:06 51°14.571 2°54.948 327.4 11.7 325 12.2
2011-03-17 07:53:10 51°14.582 2°54.936 327 11.8 325 12.5
2011-03-17 07:53:15 51°14.595 2°54.92 326.8 11.8 323 12.5
2011-03-17 07:53:20 51°14.608 2°54.905 326.4 11.8 324 12.2
2011-03-17 07:53:25 51°14.621 2°54.889 326.2 11.8 323 12.4
2011-03-17 07:53:30 51°14.634 2°54.873 326.2 11.8 323 12.6
2011-03-17 07:53:35 51°14.647 2°54.858 326.2 11.8 323 12.1
2011-03-17 07:53:39 51°14.658 2°54.846 326.3 11.8 324 12.7
2011-03-17 07:53:45 51°14.674 2°54.827 326.6 11.7 323 12.6
2011-03-17 07:53:50 51°14.687 2°54.812 326.8 11.7 323 12.2
2011-03-17 07:53:55 51°14.7 2°54.796 326.9 11.8 324 12.2
2011-03-17 07:54:00 51°14.713 2°54.781 327.4 11.8 324 12.2
2011-03-17 07:54:05 51°14.726 2°54.766 327.5 11.8 324 12.1
2011-03-17 07:54:10 51°14.74 2°54.751 327.5 11.8 325 12
2011-03-17 07:54:15 51°14.753 2°54.737 327.9 11.7 326 12.2
2011-03-17 07:54:19 51°14.764 2°54.725 328.5 11.8 327 12.3
2011-03-17 07:54:25 51°14.781 2°54.709 329.2 11.7 329 12
2011-03-17 07:54:30 51°14.795 2°54.696 330.2 11.7 329 12
2011-03-17 07:54:35 51°14.809 2°54.683 331.6 11.7 331 12.1
2011-03-17 07:54:40 51°14.823 2°54.67 332.6 11.7 331 12.5
2011-03-17 07:54:45 51°14.838 2°54.659 333.6 11.7 333 12.3
2011-03-17 07:54:50 51°14.852 2°54.647 334.4 11.7 332 12.1
2011-03-17 07:54:55 51°14.867 2°54.635 334.7 11.7 333 12.2
2011-03-17 07:55:00 51°14.881 2°54.623 334.8 11.8 332 12.2
2011-03-17 07:55:04 51°14.893 2°54.614 334.7 11.6 332 12.1
2011-03-17 07:55:10 51°14.91 2°54.599 334.7 11.6 332 12
2011-03-17 07:55:15 51°14.924 2°54.586 334.5 11.7 331 12.3
2011-03-17 07:55:20 51°14.938 2°54.574 334.1 11.6 331 12
2011-03-17 07:55:25 51°14.952 2°54.562 334 11.6 331 11.9
2011-03-17 07:55:30 51°14.967 2°54.55 334.1 11.6 332 11.9
2011-03-17 07:55:34 51°14.978 2°54.54 334.6 11.6 333 11.9
2011-03-17 07:55:38 51°14.989 2°54.531 335.2 11.6 332 11.8
2011-03-17 07:55:44 51°15.006 2°54.516 335.2 11.6 332 11.7
2011-03-17 07:55:49 51°15.02 2°54.505 334.9 11.6 332 11.5
2011-03-17 07:55:54 51°15.035 2°54.492 334.7 11.6 331 11.2
2011-03-17 07:55:58 51°15.046 2°54.483 334.4 11.6 331 10.9
2011-03-17 07:56:04 51°15.063 2°54.468 334 11.5 331 10.9
2011-03-17 07:56:10 51°15.079 2°54.452 333.6 11.6 331 11
2011-03-17 07:56:14 51°15.091 2°54.443 334.7 11.5 336 10.8
2011-03-17 07:56:18 51°15.102 2°54.437 338.3 11.3 340 10.2
2011-03-17 07:56:24 51°15.12 2°54.427 342 11.4 343 10.6
2011-03-17 07:56:30 51°15.138 2°54.419 344.8 11.3 344 10.3
2011-03-17 07:56:34 51°15.151 2°54.414 346.7 11.3 345 10
2011-03-17 07:56:40 51°15.169 2°54.407 348.3 11.3 348 10
2011-03-17 07:56:45 51°15.185 2°54.404 350.2 11.3 352 9.9
2011-03-17 07:56:50 51°15.2 2°54.401 353.9 11.4 355 10.1
2011-03-17 07:56:54 51°15.213 2°54.4 356.7 11.3 356 9.9
2011-03-17 07:57:00 51°15.232 2°54.399 358.9 11.4 358 9.8
2011-03-17 07:57:05 51°15.248 2°54.399 0.4 11.4 -999 9.7
2011-03-17 07:57:10 51°15.264 2°54.4 2.2 11.4 1 9.8
2011-03-17 07:57:14 51°15.276 2°54.401 3.3 11.4 2 10
2011-03-17 07:57:18 51°15.289 2°54.402 3.7 11.4 1 10.3
2011-03-17 07:57:25 51°15.312 2°54.404 4 11.4 2 10
2011-03-17 07:57:30 51°15.328 2°54.403 3.7 11.4 359 10.2
2011-03-17 07:57:34 51°15.34 2°54.402 1.5 11.4 357 10
2011-03-17 07:57:38 51°15.353 2°54.4 359.8 11.4 355 10
2011-03-17 07:57:44 51°15.372 2°54.397 358.2 11.5 353 10.2
2011-03-17 07:57:50 51°15.39 2°54.393 356.6 11.4 353 10.1
2011-03-17 07:57:54 51°15.403 2°54.39 355.6 11.5 351 10.5
2011-03-17 07:57:58 51°15.416 2°54.387 354.6 11.4 351 10.2
2011-03-17 07:58:04 51°15.434 2°54.382 353.7 11.4 350 10.5
2011-03-17 07:58:10 51°15.453 2°54.378 353.8 11.5 351 10.7
2011-03-17 07:58:14 51°15.465 2°54.374 353.9 11.4 351 10.8
2011-03-17 07:58:18 51°15.478 2°54.371 354.3 11.4 352 10.6
2011-03-17 07:58:24 51°15.497 2°54.368 354.9 11.4 352 10.8
2011-03-17 07:58:30 51°15.515 2°54.364 355.5 11.4 353 10.5
2011-03-17 07:58:34 51°15.528 2°54.362 356.3 11.4 354 11
2011-03-17 07:58:40 51°15.547 2°54.358 356.7 11.4 354 10.7
2011-03-17 07:58:45 51°15.562 2°54.356 356.8 11.4 354 10.9
2011-03-17 07:58:50 51°15.578 2°54.353 356.9 11.4 355 10.9
2011-03-17 07:58:54 51°15.591 2°54.351 356.9 11.4 355 11
2011-03-17 07:59:00 51°15.61 2°54.348 357 11.4 354 10.9
2011-03-17 07:59:05 51°15.625 2°54.345 356.8 11.4 354 11.2
2011-03-17 07:59:10 51°15.641 2°54.343 356.5 11.4 354 11
2011-03-17 07:59:14 51°15.654 2°54.34 356.3 11.5 354 11.1
2011-03-17 07:59:20 51°15.673 2°54.337 355.8 11.4 353 11
2011-03-17 07:59:25 51°15.688 2°54.334 355.6 11.4 353 11.1
2011-03-17 07:59:30 51°15.704 2°54.331 355.4 11.5 353 11.2
2011-03-17 07:59:34 51°15.717 2°54.329 355 11.5 353 11.2
2011-03-17 07:59:38 51°15.73 2°54.326 354.8 11.4 353 11.2
2011-03-17 07:59:44 51°15.749 2°54.323 354.8 11.4 353 11.7
2011-03-17 07:59:50 51°15.768 2°54.319 355 11.5 354 11.6
2011-03-17 07:59:54 51°15.78 2°54.317 355.4 11.5 354 11.4
2011-03-17 07:59:58 51°15.793 2°54.314 355.5 11.5 354 11.8
2011-03-17 08:00:04 51°15.812 2°54.31 355.5 11.5 352 11.6
2011-03-17 08:00:10 51°15.831 2°54.306 355 11.5 353 11.5
2011-03-17 08:00:14 51°15.843 2°54.303 354.7 11.6 353 11.9
2011-03-17 08:00:18 51°15.856 2°54.3 354.6 11.5 353 11.7
2011-03-17 08:00:24 51°15.875 2°54.296 354.5 11.5 352 11.4
2011-03-17 08:00:30 51°15.894 2°54.293 354.5 11.5 353 11.5
2011-03-17 08:00:34 51°15.906 2°54.29 354.7 11.5 353 11.8
2011-03-17 08:00:38 51°15.919 2°54.288 355 11.5 353 11.5
2011-03-17 08:00:44 51°15.938 2°54.284 355 11.4 353 12
2011-03-17 08:00:50 51°15.957 2°54.28 355 11.5 353 12.1
2011-03-17 08:00:54 51°15.969 2°54.277 355 11.6 353 11.9
2011-03-17 08:01:00 51°15.989 2°54.273 355 11.6 353 11.7
2011-03-17 08:01:05 51°16.005 2°54.271 355 11.5 353 11.6
2011-03-17 08:01:10 51°16.02 2°54.268 354.7 11.2 352 11.9
2011-03-17 08:01:14 51°16.032 2°54.266 354.8 10.7 353 12.1
2011-03-17 08:01:20 51°16.049 2°54.263 354.7 10 354 12.2
2011-03-17 08:01:25 51°16.062 2°54.261 355.1 9.4 355 12.2
2011-03-17 08:01:30 51°16.074 2°54.26 356 8.8 357 11.9
2011-03-17 08:01:34 51°16.083 2°54.26 358.2 8.4 -999 12.3
2011-03-17 08:01:38 51°16.092 2°54.261 1.4 7.9 5 12.4
2011-03-17 08:01:45 51°16.106 2°54.264 5 7.5 8 12.2
2011-03-17 08:01:50 51°16.116 2°54.267 8.5 7.2 12 12.2
2011-03-17 08:01:54 51°16.123 2°54.27 11.9 6.9 15 12.6
2011-03-17 08:01:58 51°16.13 2°54.273 15.6 6.6 19 12.5
2011-03-17 08:02:04 51°16.14 2°54.279 18.3 6.3 20 12.1
2011-03-17 08:02:10 51°16.149 2°54.285 20.3 6.1 21 12.2
2011-03-17 08:02:14 51°16.156 2°54.289 21.2 6 23 12.3
2011-03-17 08:02:18 51°16.162 2°54.293 22.2 5.8 24 12.6
2011-03-17 08:02:24 51°16.17 2°54.3 23 5.7 25 12.5
2011-03-17 08:02:30 51°16.178 2°54.306 23.9 5.6 25 12.2
2011-03-17 08:02:34 51°16.184 2°54.311 24.5 5.5 26 12.1
2011-03-17 08:02:38 51°16.189 2°54.315 24.8 5.4 27 12.1
2011-03-17 08:02:44 51°16.197 2°54.322 24.9 5.4 28 12.4
2011-03-17 08:02:50 51°16.205 2°54.328 25.3 5.4 28 12.5
2011-03-17 08:02:54 51°16.21 2°54.332 25 5.3 27 12.5
2011-03-17 08:02:58 51°16.215 2°54.336 25 5.2 28 12.3
2011-03-17 08:03:04 51°16.223 2°54.343 25.5 5.1 26 12.2
2011-03-17 08:03:10 51°16.23 2°54.349 25.6 4.9 30 12.5
2011-03-17 08:03:14 51°16.234 2°54.353 25.7 4.5 28 12.2
2011-03-17 08:03:20 51°16.24 2°54.359 26.1 4.3 30 12.3
2011-03-17 08:03:25 51°16.245 2°54.363 26.1 4 29 12.4
2011-03-17 08:03:30 51°16.25 2°54.367 25.8 3.8 31 12.5
2011-03-17 08:03:34 51°16.253 2°54.37 25.5 3.6 30 12.3
2011-03-17 08:03:40 51°16.258 2°54.375 26.3 3.3 34 12.4
2011-03-17 08:03:45 51°16.261 2°54.379 28.4 3 36 12.4
2011-03-17 08:03:50 51°16.264 2°54.383 31.4 2.7 43 12.5
2011-03-17 08:03:54 51°16.266 2°54.387 35.2 2.5 46 12
2011-03-17 08:03:58 51°16.267 2°54.39 39.7 2.1 51 12.1
2011-03-17 08:04:05 51°16.269 2°54.394 43.9 1.9 53 12.2
2011-03-17 08:04:10 51°16.271 2°54.398 47.8 1.7 62 12.5
2011-03-17 08:04:14 51°16.271 2°54.4 51.4 1.5 64 12.5
2011-03-17 08:04:18 51°16.272 2°54.402 54.7 1.3 72 12.6
2011-03-17 08:04:24 51°16.272 2°54.405 58 1.2 71 12.4
2011-03-17 08:04:30 51°16.273 2°54.408 61.1 1.1 73 12.2
2011-03-17 08:04:34 51°16.273 2°54.41 64.2 1.2 84 12.4
2011-03-17 08:04:38 51°16.273 2°54.412 67 1.1 80 12.1
2011-03-17 08:04:44 51°16.273 2°54.416 69.7 1.2 89 12.3
2011-03-17 08:04:50 51°16.273 2°54.418 72 1.1 92 12.5
2011-03-17 08:04:54 51°16.273 2°54.42 74.1 1.1 97 12.4
2011-03-17 08:04:58 51°16.273 2°54.422 76.4 1.2 105 12.4
2011-03-17 08:05:04 51°16.272 2°54.425 78.6 1.2 106 12.5
2011-03-17 08:05:09 51°16.272 2°54.428 80.7 1.1 102 12.5
2011-03-17 08:05:14 51°16.272 2°54.43 82.1 1.2 109 12.7
2011-03-17 08:05:18 51°16.272 2°54.432 83.3 1.2 106 12.6
2011-03-17 08:05:24 51°16.271 2°54.434 84.4 1.1 103 12.4
2011-03-17 08:05:30 51°16.271 2°54.437 85.1 1.1 112 12.5
2011-03-17 08:05:34 51°16.271 2°54.439 86.1 1 109 12.5
2011-03-17 08:05:40 51°16.27 2°54.441 86.6 1 110 12.5
2011-03-17 08:05:45 51°16.269 2°54.444 86.6 1.1 111 12.6
2011-03-17 08:05:50 51°16.269 2°54.446 86.6 1.1 111 12.6
2011-03-17 08:05:54 51°16.268 2°54.447 86.8 1 110 12.5
2011-03-17 08:05:58 51°16.268 2°54.449 86.5 1.1 114 12.6
2011-03-17 08:06:04 51°16.267 2°54.452 86.3 1.1 118 12.5
2011-03-17 08:06:10 51°16.266 2°54.455 86.8 1.1 113 12.4
2011-03-17 08:06:14 51°16.266 2°54.456 86.5 1 111 12.6
2011-03-17 08:06:18 51°16.265 2°54.458 86.4 1.1 116 12.7
2011-03-17 08:06:24 51°16.265 2°54.46 86.4 1 113 12.6
2011-03-17 08:06:30 51°16.264 2°54.463 86.5 1.1 117 12.7
2011-03-17 08:06:34 51°16.264 2°54.464 85.9 0.9 107 12.6
2011-03-17 08:06:38 51°16.263 2°54.466 85.4 1 115 12.6
2011-03-17 08:06:44 51°16.263 2°54.468 85.4 0.9 116 12.5
2011-03-17 08:06:50 51°16.262 2°54.471 85.1 1 115 12.5
2011-03-17 08:06:54 51°16.261 2°54.472 84.5 1 121 12.6
2011-03-17 08:06:58 51°16.261 2°54.474 84.3 0.8 107 12.2
2011-03-17 08:07:04 51°16.26 2°54.476 84.2 0.9 118 12.2
2011-03-17 08:07:09 51°16.259 2°54.478 84.3 0.9 117 12.5
2011-03-17 08:07:14 51°16.259 2°54.479 84.2 1 123 12.8
2011-03-17 08:07:18 51°16.259 2°54.481 84.2 0.9 111 12.5
2011-03-17 08:07:24 51°16.258 2°54.483 84 0.9 119 12.5
2011-03-17 08:07:29 51°16.257 2°54.485 83.1 0.9 125 12.5
2011-03-17 08:07:34 51°16.257 2°54.486 83.2 0.8 113 12.6
2011-03-17 08:07:38 51°16.256 2°54.488 82.9 0.9 122 12.8
2011-03-17 08:07:44 51°16.256 2°54.489 82.7 0.9 121 12.9
2011-03-17 08:07:50 51°16.255 2°54.491 82.9 0.8 115 12.6
2011-03-17 08:07:54 51°16.254 2°54.493 83 0.8 119 12.5
2011-03-17 08:08:00 51°16.254 2°54.494 82.9 0.8 123 12.6
2011-03-17 08:08:04 51°16.254 2°54.496 82.8 0.8 122 12.6
2011-03-17 08:08:10 51°16.253 2°54.497 82.6 0.9 125 12.5
2011-03-17 08:08:14 51°16.253 2°54.498 82.4 0.8 117 12.5
2011-03-17 08:08:18 51°16.252 2°54.5 82.4 0.8 119 12.6
2011-03-17 08:08:24 51°16.251 2°54.502 81.9 0.9 130 12.5
2011-03-17 08:08:30 51°16.251 2°54.503 82.2 0.7 116 12.3
2011-03-17 08:08:34 51°16.25 2°54.504 82.2 0.9 129 12.5
2011-03-17 08:08:38 51°16.25 2°54.506 82.2 0.8 117 12.5
2011-03-17 08:08:44 51°16.249 2°54.507 82.2 0.9 132 12.5
2011-03-17 08:08:50 51°16.248 2°54.509 82.2 0.9 131 12.5
2011-03-17 08:08:54 51°16.248 2°54.51 82.4 0.7 114 12.4
2011-03-17 08:08:58 51°16.247 2°54.511 82.4 0.8 131 12.4
2011-03-17 08:09:04 51°16.247 2°54.513 82.4 0.9 133 12.6
2011-03-17 08:09:10 51°16.246 2°54.514 82.5 0.7 124 12.5
2011-03-17 08:09:14 51°16.245 2°54.516 82.8 0.7 121 12.3
2011-03-17 08:09:18 51°16.245 2°54.517 82.6 0.8 128 12.5
2011-03-17 08:09:24 51°16.244 2°54.518 82.5 0.8 130 12.6
2011-03-17 08:09:29 51°16.244 2°54.519 82.6 0.8 133 12.4
2011-03-17 08:09:34 51°16.243 2°54.521 82.7 0.8 131 12.4
2011-03-17 08:09:38 51°16.242 2°54.522 82.9 0.8 127 12.4
2011-03-17 08:09:44 51°16.242 2°54.523 82.3 0.8 135 12.2
2011-03-17 08:09:49 51°16.241 2°54.525 82.9 0.7 131 12.3
2011-03-17 08:09:54 51°16.24 2°54.526 83 0.9 140 12.6
2011-03-17 08:09:58 51°16.24 2°54.527 83.6 0.8 131 12.6
2011-03-17 08:10:04 51°16.239 2°54.528 83.5 0.8 139 12.7
2011-03-17 08:10:10 51°16.238 2°54.53 83.9 0.8 139 12.6
2011-03-17 08:10:14 51°16.238 2°54.531 84.5 0.7 132 12.4
2011-03-17 08:10:20 51°16.237 2°54.532 85 0.7 138 12.3
2011-03-17 08:10:24 51°16.236 2°54.533 85.1 0.7 133 12.3
2011-03-17 08:10:30 51°16.236 2°54.534 85.2 0.7 138 12.4
2011-03-17 08:10:34 51°16.235 2°54.535 85.7 0.7 135 12.6
2011-03-17 08:10:38 51°16.234 2°54.536 85.7 0.7 132 12.5
2011-03-17 08:10:44 51°16.234 2°54.537 85.5 0.8 133 12.4
2011-03-17 08:10:50 51°16.233 2°54.539 85.3 0.7 139 12.5
2011-03-17 08:10:54 51°16.232 2°54.539 85.7 0.7 141 12.8
2011-03-17 08:10:58 51°16.232 2°54.54 86.4 0.7 138 12.6
2011-03-17 08:11:04 51°16.231 2°54.542 86.5 0.6 133 12.2
2011-03-17 08:11:10 51°16.23 2°54.543 86.4 0.8 144 12.5
2011-03-17 08:11:14 51°16.23 2°54.544 86.8 0.7 135 12.7
2011-03-17 08:11:18 51°16.229 2°54.544 86.9 0.6 136 12.6
2011-03-17 08:11:24 51°16.228 2°54.546 86.9 0.7 142 12.5
2011-03-17 08:11:29 51°16.228 2°54.547 87.5 0.7 138 12.4
2011-03-17 08:11:34 51°16.227 2°54.548 88.1 0.7 142 12.8
2011-03-17 08:11:38 51°16.226 2°54.548 88.4 0.6 139 12.8
2011-03-17 08:11:44 51°16.225 2°54.549 88.9 0.8 147 12.7
2011-03-17 08:11:49 51°16.225 2°54.551 89.4 0.6 136 12.5
2011-03-17 08:11:54 51°16.224 2°54.551 89.6 0.6 138 12.4
2011-03-17 08:11:58 51°16.224 2°54.552 89.8 0.6 140 12.7
2011-03-17 08:12:04 51°16.223 2°54.553 89.9 0.6 128 12.4
2011-03-17 08:12:10 51°16.222 2°54.555 90.2 0.5 123 12.3
2011-03-17 08:12:14 51°16.221 2°54.555 90.1 0.8 145 12.5
2011-03-17 08:12:20 51°16.221 2°54.556 90.7 0.6 137 12.3
2011-03-17 08:12:24 51°16.22 2°54.557 90.9 0.6 140 12.4
2011-03-17 08:12:30 51°16.219 2°54.558 91.4 0.7 133 12.4
2011-03-17 08:12:34 51°16.218 2°54.559 91.8 0.6 136 12.5
2011-03-17 08:12:38 51°16.218 2°54.56 91.9 0.7 141 12.6
2011-03-17 08:12:44 51°16.218 2°54.561 92.3 0.5 124 12.4
2011-03-17 08:12:50 51°16.217 2°54.562 92.2 0.7 146 12.5
2011-03-17 08:12:54 51°16.216 2°54.563 92.4 0.7 145 12.7
2011-03-17 08:12:58 51°16.216 2°54.564 93.3 0.6 137 12.6
2011-03-17 08:13:04 51°16.215 2°54.565 93.6 0.6 141 12.6
2011-03-17 08:13:10 51°16.214 2°54.566 94 0.7 142 12.6
2011-03-17 08:13:14 51°16.214 2°54.567 94.7 0.6 133 12.5
2011-03-17 08:13:18 51°16.214 2°54.567 94.8 0.6 125 12.5
2011-03-17 08:13:24 51°16.213 2°54.569 95.1 0.6 137 12.5
2011-03-17 08:13:30 51°16.212 2°54.57 95.6 0.7 141 12.5
2011-03-17 08:13:34 51°16.211 2°54.571 96.2 0.6 133 12.5
2011-03-17 08:13:38 51°16.211 2°54.571 96.6 0.6 136 12.5
2011-03-17 08:13:44 51°16.21 2°54.572 96.8 0.6 132 12.6
2011-03-17 08:13:49 51°16.21 2°54.573 97.2 0.6 137 12.5
2011-03-17 08:13:54 51°16.209 2°54.574 97.4 0.6 133 12.5
2011-03-17 08:13:58 51°16.209 2°54.575 97.8 0.7 148 12.7
2011-03-17 08:14:04 51°16.208 2°54.576 98.4 0.6 141 12.6
2011-03-17 08:14:09 51°16.207 2°54.577 98.8 0.7 137 12.7
2011-03-17 08:14:14 51°16.207 2°54.578 98.8 0.7 141 12.6
2011-03-17 08:14:18 51°16.206 2°54.579 99.4 0.6 131 12.4
2011-03-17 08:14:24 51°16.206 2°54.58 99.5 0.6 134 12.4
2011-03-17 08:14:30 51°16.205 2°54.581 99.5 0.6 125 12.4
2011-03-17 08:14:34 51°16.204 2°54.582 99.7 0.7 142 12.5
2011-03-17 08:14:40 51°16.203 2°54.583 100.2 0.6 135 12.5
2011-03-17 08:14:45 51°16.202 2°54.584 101 0.7 144 12.6
2011-03-17 08:14:50 51°16.202 2°54.585 101.6 0.6 132 12.5
2011-03-17 08:14:54 51°16.201 2°54.585 101.9 0.6 128 12.3
2011-03-17 08:14:58 51°16.201 2°54.587 101.9 0.7 133 12.5
2011-03-17 08:15:04 51°16.2 2°54.588 102.6 0.7 138 12.5
2011-03-17 08:15:10 51°16.199 2°54.589 102.7 0.5 128 12.4
2011-03-17 08:15:14 51°16.198 2°54.59 102.9 0.7 145 12.6
2011-03-17 08:15:18 51°16.198 2°54.591 103.2 0.6 137 12.6
2011-03-17 08:15:24 51°16.197 2°54.591 103.4 0.6 138 12.7
2011-03-17 08:15:30 51°16.196 2°54.593 103.6 0.7 138 12.8
2011-03-17 08:15:34 51°16.196 2°54.594 104 0.7 140 12.5
2011-03-17 08:15:38 51°16.195 2°54.594 104.6 0.8 127 12.5
2011-03-17 08:15:44 51°16.194 2°54.597 105 1.2 128 12.4
2011-03-17 08:15:50 51°16.193 2°54.6 107 1.5 120 12.2
2011-03-17 08:15:54 51°16.192 2°54.604 110.4 1.9 121 12.4
2011-03-17 08:15:58 51°16.191 2°54.607 114 2.2 119 12.3
2011-03-17 08:16:04 51°16.188 2°54.612 118.1 2.5 124 12.4
2011-03-17 08:16:09 51°16.186 2°54.617 122.8 2.7 125 12.5
2011-03-17 08:16:14 51°16.184 2°54.622 127.3 2.9 131 12.4
2011-03-17 08:16:18 51°16.181 2°54.626 132.7 3.1 134 12.6
2011-03-17 08:16:24 51°16.177 2°54.632 138 3.3 139 12.3
2011-03-17 08:16:29 51°16.173 2°54.636 143.8 3.4 146 12.5
2011-03-17 08:16:34 51°16.169 2°54.64 149.2 3.4 150 12.5
2011-03-17 08:16:38 51°16.166 2°54.643 155.1 3.5 156 12.4
2011-03-17 08:16:44 51°16.16 2°54.646 161.3 3.5 163 12.7
2011-03-17 08:16:50 51°16.154 2°54.648 167.7 3.5 170 12.3
2011-03-17 08:16:54 51°16.15 2°54.649 174.6 3.6 174 12.5
2011-03-17 08:17:00 51°16.144 2°54.648 181.2 3.6 182 12.4
2011-03-17 08:17:04 51°16.14 2°54.648 187.4 3.5 188 12.4
2011-03-17 08:17:10 51°16.134 2°54.646 194 3.6 190 12.6
2011-03-17 08:17:14 51°16.131 2°54.643 200.2 3.7 202 12.4
2011-03-17 08:17:18 51°16.127 2°54.641 205.7 3.9 205 12.5
2011-03-17 08:17:24 51°16.121 2°54.635 210.7 4.3 211 12.3
2011-03-17 08:17:30 51°16.114 2°54.628 215.5 4.7 216 12.5
2011-03-17 08:17:34 51°16.11 2°54.622 220.8 4.9 222 12.4
2011-03-17 08:17:38 51°16.106 2°54.615 226.7 5.3 229 12.3
2011-03-17 08:17:44 51°16.101 2°54.603 232.3 5.6 235 12.5
2011-03-17 08:17:50 51°16.096 2°54.59 238.5 5.8 241 12.4
2011-03-17 08:17:54 51°16.093 2°54.58 244.7 6 247 12.4
2011-03-17 08:17:58 51°16.091 2°54.57 248.9 6.4 249 12.5
2011-03-17 08:18:04 51°16.087 2°54.554 252.7 6.6 253 12.7
2011-03-17 08:18:10 51°16.085 2°54.536 256.1 6.7 256 12.5
2011-03-17 08:18:14 51°16.083 2°54.524 259.2 6.8 258 12.5
2011-03-17 08:18:18 51°16.082 2°54.512 261.4 7.1 262 12.5
2011-03-17 08:18:24 51°16.081 2°54.493 265 7.2 267 12.1
2011-03-17 08:18:29 51°16.08 2°54.477 268.6 7.3 268 12.3
2011-03-17 08:18:34 51°16.08 2°54.461 270.2 7.3 267 12.2
2011-03-17 08:18:38 51°16.08 2°54.447 270.2 7.5 266 12.5
2011-03-17 08:18:44 51°16.079 2°54.428 270.1 7.6 267 12.5
2011-03-17 08:18:50 51°16.079 2°54.407 269.7 7.7 268 12.2
2011-03-17 08:18:54 51°16.078 2°54.394 269.1 7.7 265 12.2
2011-03-17 08:19:00 51°16.077 2°54.373 267.6 7.8 267 12.5
2011-03-17 08:19:04 51°16.077 2°54.359 267.2 7.8 268 12.4
2011-03-17 08:19:10 51°16.078 2°54.339 270.3 7.7 276 12.6
2011-03-17 08:19:14 51°16.08 2°54.326 276.4 7.7 281 12.8
2011-03-17 08:19:20 51°16.084 2°54.307 283.1 7.5 289 12.6
2011-03-17 08:19:24 51°16.087 2°54.295 290.2 7.3 297 12.6
2011-03-17 08:19:30 51°16.094 2°54.279 297.6 7.2 304 12.3
2011-03-17 08:19:34 51°16.099 2°54.269 304.7 7.2 311 12.8
2011-03-17 08:19:38 51°16.105 2°54.261 311.4 7.3 314 12.8
2011-03-17 08:19:45 51°16.115 2°54.245 315.3 7.3 317 12.5
2011-03-17 08:19:50 51°16.123 2°54.234 318 7.4 320 12.6
2011-03-17 08:19:54 51°16.129 2°54.226 320 7.4 321 12.5
2011-03-17 08:19:58 51°16.136 2°54.219 321.8 7.5 323 12.5
2011-03-17 08:20:04 51°16.146 2°54.207 323.4 7.6 324 12.7
2011-03-17 08:20:10 51°16.157 2°54.195 325.1 7.6 325 12.8
2011-03-17 08:20:14 51°16.163 2°54.188 326 7.6 326 13.1
2011-03-17 08:20:18 51°16.171 2°54.18 327.8 7.7 330 13
2011-03-17 08:20:24 51°16.182 2°54.171 330.6 7.7 332 13
2011-03-17 08:20:29 51°16.191 2°54.164 334.3 7.6 338 12.9
2011-03-17 08:20:34 51°16.201 2°54.159 338.2 7.4 343 12.8
2011-03-17 08:20:38 51°16.209 2°54.156 343.8 7 352 12.7
2011-03-17 08:20:44 51°16.22 2°54.156 352.3 6.5 1 12.7
2011-03-17 08:20:49 51°16.229 2°54.157 0.1 6 7 12.4
2011-03-17 08:20:54 51°16.236 2°54.16 6.7 5.7 16 13.1
2011-03-17 08:20:58 51°16.242 2°54.163 13.3 5.4 21 13
2011-03-17 08:21:04 51°16.25 2°54.17 20.1 5 27 12.5
2011-03-17 08:21:10 51°16.255 2°54.176 26.6 4.3 35 12.3
2011-03-17 08:21:14 51°16.259 2°54.18 31.2 3.8 37 12.5
2011-03-17 08:21:20 51°16.263 2°54.187 34.8 3.4 46 13
2011-03-17 08:21:24 51°16.265 2°54.191 38.8 3 49 12.9
2011-03-17 08:21:30 51°16.268 2°54.196 43.5 2.6 54 12.6
2011-03-17 08:21:34 51°16.269 2°54.2 48.4 2.4 62 12.9
2011-03-17 08:21:40 51°16.271 2°54.205 52.7 2.1 63 12.7
2011-03-17 08:21:45 51°16.271 2°54.209 56.7 1.8 73 12.6
2011-03-17 08:21:50 51°16.272 2°54.211 60.6 1.4 81 12.8
2011-03-17 08:21:54 51°16.272 2°54.213 64.7 0.8 90 12.6
2011-03-17 08:21:58 51°16.272 2°54.214 68.5 0.7 105 12.7
2011-03-17 08:22:04 51°16.271 2°54.215 71.6 0.7 114 12.8
2011-03-17 08:22:10 51°16.27 2°54.217 74.6 0.7 121 12.8
2011-03-17 08:22:14 51°16.27 2°54.218 77.7 0.7 112 12.6
2011-03-17 08:22:18 51°16.27 2°54.22 80.9 0.7 113 12.7
2011-03-17 08:22:24 51°16.269 2°54.222 83.6 0.8 121 12.9
2011-03-17 08:22:30 51°16.268 2°54.224 86.2 0.8 124 13
2011-03-17 08:22:34 51°16.268 2°54.225 89 0.8 118 12.8
2011-03-17 08:22:38 51°16.267 2°54.226 91.7 0.8 115 12.8
2011-03-17 08:22:44 51°16.266 2°54.228 93.8 0.8 125 12.9
2011-03-17 08:22:49 51°16.266 2°54.229 96.1 0.8 125 13
2011-03-17 08:22:54 51°16.265 2°54.231 98.4 0.8 123 13
2011-03-17 08:22:58 51°16.265 2°54.232 100.5 0.9 130 13.2
2011-03-17 08:23:04 51°16.264 2°54.234 102.1 0.9 125 13.1
2011-03-17 08:23:10 51°16.263 2°54.236 104.2 0.8 131 12.9
2011-03-17 08:23:14 51°16.263 2°54.237 105.8 0.9 123 13.1
2011-03-17 08:23:19 51°16.262 2°54.239 107.3 0.9 120 12.6
2011-03-17 08:23:25 51°16.261 2°54.24 108.6 0.9 121 12.7
2011-03-17 08:23:30 51°16.26 2°54.242 109.4 0.9 131 13
2011-03-17 08:23:34 51°16.26 2°54.243 110.4 0.9 126 13
2011-03-17 08:23:39 51°16.259 2°54.245 111.5 0.9 125 12.7
2011-03-17 08:23:45 51°16.258 2°54.246 112.2 0.9 132 13.1
2011-03-17 08:23:49 51°16.257 2°54.248 112.6 0.9 135 12.9
2011-03-17 08:23:54 51°16.256 2°54.25 113.6 1 130 12.9
2011-03-17 08:23:59 51°16.256 2°54.251 114.1 0.9 128 12.7
2011-03-17 08:24:05 51°16.255 2°54.253 114.6 1 127 12.8
2011-03-17 08:24:10 51°16.254 2°54.255 114.8 1 130 12.9
2011-03-17 08:24:14 51°16.253 2°54.256 114.9 1 123 12.8
2011-03-17 08:24:19 51°16.252 2°54.258 115.3 1 128 12.6
2011-03-17 08:24:25 51°16.251 2°54.26 115.3 1 125 12.8
2011-03-17 08:24:30 51°16.25 2°54.261 115.1 1 131 12.8
2011-03-17 08:24:34 51°16.25 2°54.263 115.1 1 121 12.8
2011-03-17 08:24:39 51°16.249 2°54.265 114.4 1 130 12.8
2011-03-17 08:24:44 51°16.248 2°54.266 113.9 1 128 12.8
2011-03-17 08:24:50 51°16.247 2°54.269 114.1 1 121 12.9
2011-03-17 08:24:54 51°16.246 2°54.27 113.4 1 134 13.1
2011-03-17 08:24:58 51°16.246 2°54.271 113.1 1 126 13.1
2011-03-17 08:25:04 51°16.245 2°54.273 113 1 128 12.8
2011-03-17 08:25:10 51°16.244 2°54.276 112.6 1 122 12.7
2011-03-17 08:25:14 51°16.243 2°54.277 112 1.1 126 12.6
2011-03-17 08:25:20 51°16.242 2°54.279 111.6 1 112 12.7
2011-03-17 08:25:25 51°16.241 2°54.281 110.7 1 130 13.2
2011-03-17 08:25:30 51°16.241 2°54.283 110.4 1 122 13.1
2011-03-17 08:25:34 51°16.24 2°54.284 109.4 1 127 12.9
2011-03-17 08:25:40 51°16.239 2°54.287 109.1 1 117 13
2011-03-17 08:25:45 51°16.239 2°54.289 108.2 1 117 12.7
2011-03-17 08:25:50 51°16.238 2°54.29 107.5 1 123 13.1
2011-03-17 08:25:54 51°16.237 2°54.292 106.8 1 123 13.2
2011-03-17 08:26:00 51°16.236 2°54.294 106.8 1 130 13.3
2011-03-17 08:26:05 51°16.236 2°54.296 106.5 1 121 12.9
2011-03-17 08:26:10 51°16.235 2°54.298 106.5 1 109 12.6
2011-03-17 08:26:14 51°16.234 2°54.299 105.9 1 125 12.9
2011-03-17 08:26:18 51°16.234 2°54.301 105.3 1 119 13
2011-03-17 08:26:25 51°16.233 2°54.303 104.9 1 122 12.8
2011-03-17 08:26:30 51°16.232 2°54.305 105 0.9 115 12.8
2011-03-17 08:26:34 51°16.232 2°54.307 104.4 0.9 123 13
2011-03-17 08:26:38 51°16.231 2°54.308 103.9 0.9 126 13.1
2011-03-17 08:26:44 51°16.23 2°54.31 103.4 0.9 123 12.8
2011-03-17 08:26:50 51°16.23 2°54.312 103.2 0.9 115 12.8
2011-03-17 08:26:54 51°16.229 2°54.314 102.5 0.9 120 12.7
2011-03-17 08:26:58 51°16.228 2°54.315 101.9 0.9 105 12.6
2011-03-17 08:27:04 51°16.228 2°54.317 101.3 0.9 124 12.9
2011-03-17 08:27:10 51°16.227 2°54.319 100.6 0.9 122 13.2
2011-03-17 08:27:14 51°16.227 2°54.321 100.2 0.9 114 12.9
2011-03-17 08:27:18 51°16.226 2°54.322 100.2 0.9 114 13.1
2011-03-17 08:27:24 51°16.226 2°54.324 99 1 127 13.2
2011-03-17 08:27:30 51°16.225 2°54.327 99.5 0.9 117 12.9
2011-03-17 08:27:34 51°16.225 2°54.328 98.8 1 113 12.9
2011-03-17 08:27:40 51°16.224 2°54.33 97.8 1 116 12.9
2011-03-17 08:27:45 51°16.224 2°54.332 96.8 0.9 114 13
2011-03-17 08:27:50 51°16.223 2°54.333 96.7 0.9 125 13
2011-03-17 08:27:54 51°16.223 2°54.335 96.6 0.8 112 13.1
2011-03-17 08:28:00 51°16.222 2°54.337 95.8 1 128 13.1
2011-03-17 08:28:05 51°16.222 2°54.339 95.1 0.9 116 12.9
2011-03-17 08:28:10 51°16.221 2°54.34 95.2 0.9 115 12.7
2011-03-17 08:28:14 51°16.221 2°54.342 94.3 0.8 113 12.9
2011-03-17 08:28:20 51°16.22 2°54.344 93.7 0.9 124 13
2011-03-17 08:28:25 51°16.219 2°54.345 93.4 0.8 108 12.8
2011-03-17 08:28:30 51°16.219 2°54.347 93.1 0.9 121 12.8
2011-03-17 08:28:34 51°16.218 2°54.349 92.8 0.8 104 12.7
2011-03-17 08:28:38 51°16.218 2°54.35 91.8 0.9 119 12.9
2011-03-17 08:28:45 51°16.217 2°54.353 91.2 0.9 117 13.1
2011-03-17 08:28:50 51°16.216 2°54.354 90.7 0.9 117 12.9
2011-03-17 08:28:54 51°16.216 2°54.356 90.7 0.8 112 12.8
2011-03-17 08:28:58 51°16.215 2°54.357 90 0.9 124 13
2011-03-17 08:29:04 51°16.215 2°54.359 89.9 0.8 109 12.9